Time;durP1;ratioP1;P1;durP2;ratioP2;P2;SDS_P1;SDS_P2;PMS_P1;PMS_P2;Temp;Humidity;BMP_temperature;BMP_pressure;BME280_temperature;BME280_humidity;BME280_pressure;Samples;Min_cycle;Max_cycle;Signal;HPM_P1;HPM_P2
2020/12/05 00:00:48;;;;;;;9.13;3.67;;;;;;;;;;5096586;28;20561;-77
2020/12/05 00:03:14;;;;;;;12.50;3.47;;;;;;;;;;5114727;27;20414;-77
2020/12/05 00:05:42;;;;;;;7.35;3.38;;;;;;;;;;5108764;28;20461;-77
2020/12/05 00:08:08;;;;;;;7.45;3.85;;;;;;;;;;5087566;27;20374;-77
2020/12/05 00:10:34;;;;;;;8.65;4.20;;;;;;;;;;5113775;27;20378;-77
2020/12/05 00:13:00;;;;;;;8.80;4.13;;;;;;;;;;5118883;27;20385;-77
2020/12/05 00:15:26;;;;;;;9.10;4.47;;;;;;;;;;5114345;28;20376;-77
2020/12/05 00:17:52;;;;;;;8.05;3.67;;;;;;;;;;5083564;28;20778;-77
2020/12/05 00:20:18;;;;;;;7.63;3.60;;;;;;;;;;5080596;28;20457;-77
2020/12/05 00:22:44;;;;;;;6.63;3.70;;;;;;;;;;5114947;28;20451;-77
2020/12/05 00:25:10;;;;;;;7.82;3.83;;;;;;;;;;5108091;28;20966;-77
2020/12/05 00:27:36;;;;;;;8.10;3.80;;;;;;;;;;5118516;27;20448;-77
2020/12/05 00:30:03;;;;;;;8.32;4.03;;;;;;;;;;5083797;28;20377;-77
2020/12/05 00:32:29;;;;;;;9.93;4.27;;;;;;;;;;5085694;28;20486;-77
2020/12/05 00:34:55;;;;;;;8.90;4.20;;;;;;;;;;5118768;27;20398;-77
2020/12/05 00:37:22;;;;;;;7.03;3.95;;;;;;;;;;5105491;28;20398;-76
2020/12/05 00:39:48;;;;;;;7.90;3.83;;;;;;;;;;5083296;27;20413;-77
2020/12/05 00:42:14;;;;;;;8.55;4.13;;;;;;;;;;5114932;27;20394;-77
2020/12/05 00:44:40;;;;;;;7.40;3.90;;;;;;;;;;5098655;28;20418;-77
2020/12/05 00:47:05;;;;;;;8.63;4.43;;;;;;;;;;5085852;28;20387;-77
2020/12/05 00:49:31;;;;;;;7.50;4.03;;;;;;;;;;5095139;28;20394;-77
2020/12/05 00:51:57;;;;;;;6.68;4.10;;;;;;;;;;5098069;27;20379;-77
2020/12/05 00:54:23;;;;;;;7.85;4.18;;;;;;;;;;5103968;28;20384;-77
2020/12/05 00:56:52;;;;;;;8.35;4.45;;;;;;;;;;5111395;28;20513;-77
2020/12/05 00:59:18;;;;;;;9.40;4.47;;;;;;;;;;5091939;28;20782;-77
2020/12/05 01:01:43;;;;;;;7.47;3.97;;;;;;;;;;5095840;28;20385;-76
2020/12/05 01:04:09;;;;;;;9.20;4.25;;;;;;;;;;5112548;28;20400;-77
2020/12/05 01:06:35;;;;;;;9.23;4.07;;;;;;;;;;5082968;28;20385;-77
2020/12/05 01:09:01;;;;;;;12.43;4.93;;;;;;;;;;5122459;27;20427;-77
2020/12/05 01:11:27;;;;;;;10.20;5.00;;;;;;;;;;5117890;27;20470;-77
2020/12/05 01:13:53;;;;;;;10.30;4.85;;;;;;;;;;5100337;28;20384;-77
2020/12/05 01:16:20;;;;;;;8.15;4.88;;;;;;;;;;5107389;28;20385;-77
2020/12/05 01:18:46;;;;;;;9.23;4.60;;;;;;;;;;5104394;28;20374;-76
2020/12/05 01:21:15;;;;;;;9.73;4.67;;;;;;;;;;5115538;27;20393;-77
2020/12/05 01:23:41;;;;;;;8.93;4.82;;;;;;;;;;5109513;27;21295;-77
2020/12/05 01:26:07;;;;;;;8.68;4.90;;;;;;;;;;5101420;28;20431;-76
2020/12/05 01:28:34;;;;;;;8.48;4.40;;;;;;;;;;5127735;27;20373;-76
2020/12/05 01:31:00;;;;;;;10.33;4.97;;;;;;;;;;5095519;28;20387;-77
2020/12/05 01:33:26;;;;;;;7.88;4.07;;;;;;;;;;5115855;27;20455;-77
2020/12/05 01:35:52;;;;;;;8.00;4.65;;;;;;;;;;5094402;28;20510;-77
2020/12/05 01:38:18;;;;;;;9.10;4.88;;;;;;;;;;5121481;27;21071;-77
2020/12/05 01:40:57;;;;;;;11.83;5.40;;;;;;;;;;5096611;28;20409;-76
2020/12/05 01:43:23;;;;;;;7.67;4.57;;;;;;;;;;5094733;28;20496;-77
2020/12/05 01:45:49;;;;;;;9.20;5.10;;;;;;;;;;5089609;28;20391;-77
2020/12/05 01:48:16;;;;;;;12.60;5.28;;;;;;;;;;5113226;28;20380;-76
2020/12/05 01:50:42;;;;;;;8.48;4.55;;;;;;;;;;5101584;28;20441;-76
2020/12/05 01:53:08;;;;;;;6.75;4.28;;;;;;;;;;5116101;27;20378;-77
2020/12/05 01:55:34;;;;;;;8.18;4.93;;;;;;;;;;5127734;27;20439;-76
2020/12/05 01:58:00;;;;;;;7.60;4.90;;;;;;;;;;5088652;28;20398;-76
2020/12/05 02:00:26;;;;;;;8.57;4.85;;;;;;;;;;5104325;27;20378;-76
2020/12/05 02:02:52;;;;;;;8.70;4.70;;;;;;;;;;5095769;28;20393;-76
2020/12/05 02:05:28;;;;;;;8.63;4.97;;;;;;;;;;5103150;27;20398;-76
2020/12/05 02:08:07;;;;;;;8.82;4.78;;;;;;;;;;5096555;27;20444;-76
2020/12/05 02:10:37;;;;;;;7.68;4.70;;;;;;;;;;5118121;27;20479;-76
2020/12/05 02:13:06;;;;;;;7.40;4.70;;;;;;;;;;5079814;28;20380;-76
2020/12/05 02:15:33;;;;;;;9.27;5.63;;;;;;;;;;5112696;28;20383;-76
2020/12/05 02:18:00;;;;;;;10.30;5.10;;;;;;;;;;5113779;27;20392;-76
2020/12/05 02:20:28;;;;;;;8.85;5.47;;;;;;;;;;5113597;27;20392;-76
2020/12/05 02:22:54;;;;;;;9.52;5.82;;;;;;;;;;5117879;27;20395;-76
2020/12/05 02:25:21;;;;;;;7.55;5.25;;;;;;;;;;5112843;27;20428;-76
2020/12/05 02:27:47;;;;;;;10.25;5.78;;;;;;;;;;5109725;27;20391;-77
2020/12/05 02:30:13;;;;;;;10.25;5.93;;;;;;;;;;5118375;27;20394;-76
2020/12/05 02:32:39;;;;;;;10.32;5.65;;;;;;;;;;5106803;27;20379;-76
2020/12/05 02:35:05;;;;;;;12.48;5.93;;;;;;;;;;5107495;27;20920;-76
2020/12/05 02:37:32;;;;;;;10.68;5.63;;;;;;;;;;5096300;28;20394;-76
2020/12/05 02:40:00;;;;;;;9.63;5.00;;;;;;;;;;5129414;27;20386;-76
2020/12/05 02:42:26;;;;;;;9.15;5.45;;;;;;;;;;5096405;28;20447;-76
2020/12/05 02:44:53;;;;;;;8.85;5.55;;;;;;;;;;5099952;27;20439;-76
2020/12/05 02:47:19;;;;;;;9.63;5.40;;;;;;;;;;5107267;28;20386;-76
2020/12/05 02:49:46;;;;;;;9.27;5.47;;;;;;;;;;5122212;27;20415;-76
2020/12/05 02:52:12;;;;;;;9.65;5.43;;;;;;;;;;5095509;27;20386;-77
2020/12/05 02:54:38;;;;;;;10.93;5.30;;;;;;;;;;5110543;28;20384;-77
2020/12/05 02:57:04;;;;;;;7.97;5.07;;;;;;;;;;5126776;27;20545;-77
2020/12/05 02:59:31;;;;;;;9.23;5.50;;;;;;;;;;5121165;27;20388;-77
2020/12/05 03:01:57;;;;;;;9.50;5.63;;;;;;;;;;5121499;27;20399;-76
2020/12/05 03:04:24;;;;;;;13.10;6.63;;;;;;;;;;5104314;28;20407;-76
2020/12/05 03:06:50;;;;;;;9.40;6.10;;;;;;;;;;5123136;27;20515;-77
2020/12/05 03:09:47;;;;;;;11.35;6.70;;;;;;;;;;5123456;27;20497;-77
2020/12/05 03:12:13;;;;;;;11.50;6.77;;;;;;;;;;5109771;27;20460;-77
2020/12/05 03:14:39;;;;;;;11.13;7.13;;;;;;;;;;5107589;28;20463;-77
2020/12/05 03:17:05;;;;;;;12.95;7.22;;;;;;;;;;5121014;28;21101;-76
2020/12/05 03:19:31;;;;;;;11.27;6.15;;;;;;;;;;5123150;28;20408;-77
2020/12/05 03:21:57;;;;;;;10.00;6.25;;;;;;;;;;5097240;28;20391;-77
2020/12/05 03:24:23;;;;;;;10.75;6.90;;;;;;;;;;5112070;27;20491;-77
2020/12/05 03:26:49;;;;;;;12.32;6.85;;;;;;;;;;5107997;28;20384;-77
2020/12/05 03:29:15;;;;;;;11.23;7.20;;;;;;;;;;5132337;27;20382;-77
2020/12/05 03:34:10;;;;;;;12.97;7.50;;;;;;;;;;5129127;27;20484;-76
2020/12/05 03:36:36;;;;;;;11.00;7.13;;;;;;;;;;5131535;27;20391;-76
2020/12/05 03:39:02;;;;;;;11.48;6.95;;;;;;;;;;5111564;27;20451;-77
2020/12/05 03:41:27;;;;;;;8.68;6.35;;;;;;;;;;5113082;27;20412;-76
2020/12/05 03:43:54;;;;;;;10.13;6.25;;;;;;;;;;5095024;28;20416;-77
2020/12/05 03:46:20;;;;;;;11.63;6.57;;;;;;;;;;5127166;27;20880;-77
2020/12/05 03:48:46;;;;;;;9.93;6.18;;;;;;;;;;5122337;27;20380;-77
2020/12/05 03:51:15;;;;;;;12.60;6.32;;;;;;;;;;5127898;27;20408;-77
2020/12/05 03:53:41;;;;;;;7.85;5.65;;;;;;;;;;5126511;27;20391;-77
2020/12/05 03:56:06;;;;;;;9.50;6.15;;;;;;;;;;5101335;28;20878;-77
2020/12/05 03:58:32;;;;;;;8.73;5.90;;;;;;;;;;5130233;27;20398;-77
2020/12/05 04:00:58;;;;;;;9.23;5.80;;;;;;;;;;5105623;28;20395;-77
2020/12/05 04:03:24;;;;;;;9.87;5.63;;;;;;;;;;5086036;28;20381;-77
2020/12/05 04:05:50;;;;;;;9.85;5.38;;;;;;;;;;5095963;27;20378;-76
2020/12/05 04:08:16;;;;;;;10.93;6.10;;;;;;;;;;5111290;27;20387;-76
2020/12/05 04:10:42;;;;;;;8.13;5.28;;;;;;;;;;5104947;27;20409;-77
2020/12/05 04:13:08;;;;;;;9.50;5.97;;;;;;;;;;5104386;28;20384;-77
2020/12/05 04:15:34;;;;;;;11.27;5.93;;;;;;;;;;5115204;28;20380;-77
2020/12/05 04:18:00;;;;;;;9.43;5.78;;;;;;;;;;5111773;27;20815;-76
2020/12/05 04:20:26;;;;;;;11.48;5.57;;;;;;;;;;5114581;27;20485;-77
2020/12/05 04:22:54;;;;;;;9.55;5.47;;;;;;;;;;5114985;28;20390;-76
2020/12/05 04:25:21;;;;;;;11.80;6.63;;;;;;;;;;5097627;28;20466;-77
2020/12/05 04:27:47;;;;;;;10.20;6.07;;;;;;;;;;5124934;27;20387;-77
2020/12/05 04:30:12;;;;;;;10.57;6.47;;;;;;;;;;5120411;27;20412;-76
2020/12/05 04:32:38;;;;;;;11.07;6.50;;;;;;;;;;5125142;27;20375;-76
2020/12/05 04:35:04;;;;;;;9.65;6.03;;;;;;;;;;5109600;27;20394;-77
2020/12/05 04:37:30;;;;;;;7.70;5.40;;;;;;;;;;5114406;27;20375;-77
2020/12/05 04:39:56;;;;;;;8.88;5.32;;;;;;;;;;5100313;27;20601;-77
2020/12/05 04:42:22;;;;;;;9.75;5.30;;;;;;;;;;5092168;28;20892;-77
2020/12/05 04:44:48;;;;;;;8.57;5.30;;;;;;;;;;5095030;28;20486;-77
2020/12/05 04:47:16;;;;;;;8.18;5.63;;;;;;;;;;5098312;28;20461;-76
2020/12/05 04:49:43;;;;;;;11.65;5.95;;;;;;;;;;5101235;28;21102;-76
2020/12/05 04:52:21;;;;;;;9.35;5.97;;;;;;;;;;5094142;28;20609;-77
2020/12/05 04:54:55;;;;;;;8.70;5.15;;;;;;;;;;5103018;27;20498;-77
2020/12/05 04:57:22;;;;;;;12.88;5.97;;;;;;;;;;5096108;28;20396;-76
2020/12/05 04:59:49;;;;;;;10.05;6.07;;;;;;;;;;5114717;27;20480;-77
2020/12/05 05:02:17;;;;;;;8.57;5.30;;;;;;;;;;5090995;28;20418;-77
2020/12/05 05:04:43;;;;;;;10.25;5.47;;;;;;;;;;5106370;28;20969;-76
2020/12/05 05:07:09;;;;;;;9.73;6.00;;;;;;;;;;5118325;27;20421;-77
2020/12/05 05:09:44;;;;;;;8.98;5.57;;;;;;;;;;5099316;27;20419;-77
2020/12/05 05:12:10;;;;;;;8.75;5.30;;;;;;;;;;5113404;27;20425;-77
2020/12/05 05:14:36;;;;;;;9.50;5.38;;;;;;;;;;5097036;27;20418;-77
2020/12/05 05:17:08;;;;;;;8.63;5.40;;;;;;;;;;5092476;28;20384;-77
2020/12/05 05:19:37;;;;;;;11.50;5.37;;;;;;;;;;5098350;28;20435;-77
2020/12/05 05:22:03;;;;;;;14.75;5.72;;;;;;;;;;5112740;27;20390;-77
2020/12/05 05:24:29;;;;;;;8.90;5.40;;;;;;;;;;5096607;27;20430;-77
2020/12/05 05:27:00;;;;;;;9.48;5.05;;;;;;;;;;5113815;28;20408;-78
2020/12/05 05:29:28;;;;;;;10.20;4.93;;;;;;;;;;5090255;28;20430;-77
2020/12/05 05:32:19;;;;;;;9.48;4.90;;;;;;;;;;5113730;28;20392;-77
2020/12/05 05:34:41;;;;;;;8.88;4.78;;;;;;;;;;5116650;27;21196;-77
2020/12/05 05:37:14;;;;;;;8.35;4.70;;;;;;;;;;5101365;28;20368;-77
2020/12/05 05:39:47;;;;;;;12.03;5.77;;;;;;;;;;5113981;27;20395;-77
2020/12/05 05:42:13;;;;;;;9.87;4.93;;;;;;;;;;5104513;28;20397;-77
2020/12/05 05:44:39;;;;;;;9.23;4.80;;;;;;;;;;5106848;28;20412;-77
2020/12/05 05:47:05;;;;;;;9.17;4.70;;;;;;;;;;5092214;28;20378;-77
2020/12/05 05:49:33;;;;;;;10.52;5.70;;;;;;;;;;5084847;28;20384;-77
2020/12/05 05:51:59;;;;;;;8.88;5.43;;;;;;;;;;5115396;27;20718;-77
2020/12/05 05:54:29;;;;;;;10.98;6.30;;;;;;;;;;5074640;28;20731;-78
2020/12/05 05:56:56;;;;;;;13.45;6.70;;;;;;;;;;5110378;28;20373;-77
2020/12/05 05:59:23;;;;;;;9.45;6.07;;;;;;;;;;5086137;28;20382;-77
2020/12/05 06:01:51;;;;;;;10.80;5.82;;;;;;;;;;5088533;28;20848;-78
2020/12/05 06:04:27;;;;;;;10.40;5.60;;;;;;;;;;5114089;27;20408;-77
2020/12/05 06:06:54;;;;;;;10.85;5.90;;;;;;;;;;5104353;28;20373;-77
2020/12/05 06:09:23;;;;;;;9.30;5.82;;;;;;;;;;5088793;28;20394;-77
2020/12/05 06:11:51;;;;;;;8.90;5.78;;;;;;;;;;5112837;28;20412;-77
2020/12/05 06:14:21;;;;;;;10.37;5.90;;;;;;;;;;5092960;28;20385;-78
2020/12/05 06:16:47;;;;;;;9.70;5.07;;;;;;;;;;5097691;28;20399;-78
2020/12/05 06:19:13;;;;;;;8.05;5.25;;;;;;;;;;5117279;27;20826;-78
2020/12/05 06:21:41;;;;;;;11.45;6.40;;;;;;;;;;5113440;27;20457;-77
2020/12/05 06:24:07;;;;;;;10.10;5.75;;;;;;;;;;5117521;27;20450;-78
2020/12/05 06:26:35;;;;;;;9.95;5.85;;;;;;;;;;5098249;28;20372;-78
2020/12/05 06:29:02;;;;;;;9.15;5.50;;;;;;;;;;5112593;27;20386;-77
2020/12/05 06:31:44;;;;;;;9.18;5.22;;;;;;;;;;5082251;28;20717;-78
2020/12/05 06:34:11;;;;;;;8.50;5.00;;;;;;;;;;5094109;28;20785;-78
2020/12/05 06:36:38;;;;;;;10.57;5.03;;;;;;;;;;5100002;27;20455;-78
2020/12/05 06:39:07;;;;;;;7.95;4.88;;;;;;;;;;5117652;27;20395;-78
2020/12/05 06:41:33;;;;;;;9.07;5.97;;;;;;;;;;5118299;27;20523;-78
2020/12/05 06:44:25;;;;;;;9.85;6.15;;;;;;;;;;5084950;28;20466;-78
2020/12/05 06:46:53;;;;;;;10.07;5.70;;;;;;;;;;5094664;27;20394;-78
2020/12/05 06:49:40;;;;;;;10.63;5.45;;;;;;;;;;5117164;27;20728;-78
2020/12/05 06:52:24;;;;;;;9.40;4.80;;;;;;;;;;5089627;28;20442;-78
2020/12/05 06:55:09;;;;;;;9.93;5.32;;;;;;;;;;5094681;27;20379;-78
2020/12/05 06:57:36;;;;;;;9.43;5.22;;;;;;;;;;5100621;27;20376;-78
2020/12/05 07:00:11;;;;;;;9.82;5.53;;;;;;;;;;5107143;27;20381;-78
2020/12/05 07:02:37;;;;;;;12.23;6.78;;;;;;;;;;5107734;28;20895;-78
2020/12/05 07:05:21;;;;;;;10.18;6.22;;;;;;;;;;5120756;27;20400;-78
2020/12/05 07:07:52;;;;;;;11.93;5.97;;;;;;;;;;5120543;27;20484;-78
2020/12/05 07:10:18;;;;;;;9.32;5.43;;;;;;;;;;5108529;27;20379;-78
2020/12/05 07:13:12;;;;;;;11.02;5.75;;;;;;;;;;5121127;27;20469;-78
2020/12/05 07:15:38;;;;;;;10.90;5.43;;;;;;;;;;5104808;28;20429;-78
2020/12/05 07:18:04;;;;;;;10.02;5.90;;;;;;;;;;5099730;28;20884;-78
2020/12/05 07:20:30;;;;;;;9.70;5.90;;;;;;;;;;5126330;28;20386;-78
2020/12/05 07:22:56;;;;;;;11.23;5.80;;;;;;;;;;5100685;28;20454;-78
2020/12/05 07:25:22;;;;;;;10.68;5.57;;;;;;;;;;5123356;28;20893;-78
2020/12/05 07:27:49;;;;;;;12.70;5.90;;;;;;;;;;5122630;28;20383;-78
2020/12/05 07:30:15;;;;;;;11.35;6.43;;;;;;;;;;5117569;28;20405;-77
2020/12/05 07:33:03;;;;;;;10.02;6.30;;;;;;;;;;5108073;28;20431;-78
2020/12/05 07:35:29;;;;;;;12.55;6.35;;;;;;;;;;5102137;28;20399;-78
2020/12/05 07:37:55;;;;;;;9.70;6.13;;;;;;;;;;5118132;28;20478;-78
2020/12/05 07:40:30;;;;;;;11.18;6.35;;;;;;;;;;5106014;28;20750;-78
2020/12/05 07:42:56;;;;;;;12.70;6.95;;;;;;;;;;5124398;28;20383;-79
2020/12/05 07:45:22;;;;;;;11.32;7.03;;;;;;;;;;5125618;28;20410;-78
2020/12/05 07:47:48;;;;;;;10.68;6.60;;;;;;;;;;5107779;28;20383;-78
2020/12/05 07:50:15;;;;;;;11.70;6.70;;;;;;;;;;5115366;28;20387;-78
2020/12/05 07:52:42;;;;;;;13.27;6.97;;;;;;;;;;5126035;28;20389;-79
2020/12/05 07:55:09;;;;;;;11.63;6.68;;;;;;;;;;5119993;28;20386;-78
2020/12/05 07:57:35;;;;;;;13.23;7.53;;;;;;;;;;5108956;28;20387;-78
2020/12/05 08:00:09;;;;;;;16.20;8.18;;;;;;;;;;5092758;28;20424;-78
2020/12/05 08:02:35;;;;;;;15.47;10.03;;;;;;;;;;5118728;28;20570;-78
2020/12/05 08:05:03;;;;;;;14.30;9.98;;;;;;;;;;5095709;28;20508;-78
2020/12/05 08:07:39;;;;;;;13.70;9.23;;;;;;;;;;5123296;28;20489;-78
2020/12/05 08:10:09;;;;;;;14.45;7.85;;;;;;;;;;5124972;27;20395;-78
2020/12/05 08:12:48;;;;;;;13.70;7.63;;;;;;;;;;5110754;27;20528;-78
2020/12/05 08:15:18;;;;;;;10.73;7.30;;;;;;;;;;5094746;27;20980;-78
2020/12/05 08:17:45;;;;;;;13.90;8.48;;;;;;;;;;5112979;27;20582;-78
2020/12/05 08:20:11;;;;;;;13.55;8.80;;;;;;;;;;5104280;27;20426;-78
2020/12/05 08:22:37;;;;;;;18.35;11.05;;;;;;;;;;5092583;28;20971;-78
2020/12/05 08:25:05;;;;;;;17.70;12.63;;;;;;;;;;5122153;27;20428;-78
2020/12/05 08:27:32;;;;;;;20.73;12.68;;;;;;;;;;5105651;27;20451;-78
2020/12/05 08:29:58;;;;;;;23.45;13.65;;;;;;;;;;5126164;27;20860;-78
2020/12/05 08:32:25;;;;;;;21.10;12.95;;;;;;;;;;5106820;28;20449;-78
2020/12/05 08:35:01;;;;;;;19.50;12.82;;;;;;;;;;5115330;27;20868;-78
2020/12/05 08:37:27;;;;;;;20.30;12.57;;;;;;;;;;5085559;28;20378;-77
2020/12/05 08:39:54;;;;;;;17.38;11.07;;;;;;;;;;5078787;28;20412;-77
2020/12/05 08:42:20;;;;;;;16.67;10.95;;;;;;;;;;5102456;28;20395;-76
2020/12/05 08:44:47;;;;;;;17.52;9.90;;;;;;;;;;5106676;27;20416;-77
2020/12/05 08:47:13;;;;;;;14.70;9.40;;;;;;;;;;5097510;27;20442;-77
2020/12/05 08:49:43;;;;;;;15.32;10.05;;;;;;;;;;5119807;27;21095;-76
2020/12/05 08:52:10;;;;;;;13.18;9.88;;;;;;;;;;5104213;27;20419;-78
2020/12/05 08:54:49;;;;;;;15.32;10.18;;;;;;;;;;5096050;28;20479;-77
2020/12/05 08:57:15;;;;;;;13.73;10.18;;;;;;;;;;5114677;27;20507;-77
2020/12/05 08:59:42;;;;;;;14.70;9.63;;;;;;;;;;5112183;27;20432;-77
2020/12/05 09:02:08;;;;;;;13.32;9.43;;;;;;;;;;5095778;28;20758;-77
2020/12/05 09:04:36;;;;;;;13.70;9.47;;;;;;;;;;5124543;27;20781;-77
2020/12/05 09:07:08;;;;;;;12.95;10.02;;;;;;;;;;5107210;27;20509;-78
2020/12/05 09:09:34;;;;;;;14.05;9.55;;;;;;;;;;5116955;27;20469;-76
2020/12/05 09:12:04;;;;;;;12.32;8.90;;;;;;;;;;5111526;27;20516;-77
2020/12/05 09:14:30;;;;;;;14.73;9.57;;;;;;;;;;5112255;27;20489;-77
2020/12/05 09:16:56;;;;;;;13.30;9.95;;;;;;;;;;5127577;27;20857;-77
2020/12/05 09:19:23;;;;;;;13.93;9.32;;;;;;;;;;5110591;27;20392;-77
2020/12/05 09:21:49;;;;;;;19.25;10.25;;;;;;;;;;5099134;28;20753;-78
2020/12/05 09:24:14;;;;;;;15.25;10.20;;;;;;;;;;5095355;27;20404;-78
2020/12/05 09:26:53;;;;;;;14.68;9.52;;;;;;;;;;5089796;27;20387;-78
2020/12/05 09:29:19;;;;;;;13.20;9.37;;;;;;;;;;5124168;27;20933;-77
2020/12/05 09:31:52;;;;;;;15.77;9.77;;;;;;;;;;5106959;27;20388;-77
2020/12/05 09:34:38;;;;;;;13.25;10.38;;;;;;;;;;5115923;27;20442;-78
2020/12/05 09:37:11;;;;;;;16.02;10.23;;;;;;;;;;5114437;27;20450;-78
2020/12/05 09:39:37;;;;;;;14.10;9.77;;;;;;;;;;5101624;27;20972;-77
2020/12/05 09:42:23;;;;;;;14.40;10.17;;;;;;;;;;5123323;27;20463;-77
2020/12/05 09:44:49;;;;;;;13.88;10.32;;;;;;;;;;5105868;27;20926;-78
2020/12/05 09:47:14;;;;;;;17.63;10.33;;;;;;;;;;5100057;28;20376;-77
2020/12/05 09:49:40;;;;;;;14.02;9.48;;;;;;;;;;5107728;28;20384;-78
2020/12/05 09:52:06;;;;;;;13.95;10.07;;;;;;;;;;5117521;27;20384;-78
2020/12/05 09:54:36;;;;;;;13.32;9.80;;;;;;;;;;5109269;27;21023;-78
2020/12/05 09:57:02;;;;;;;16.30;10.60;;;;;;;;;;5102680;28;20425;-78
2020/12/05 09:59:28;;;;;;;14.52;9.82;;;;;;;;;;5107725;27;20473;-78
2020/12/05 10:01:54;;;;;;;13.83;10.13;;;;;;;;;;5108377;27;20524;-78
2020/12/05 10:04:20;;;;;;;15.35;10.27;;;;;;;;;;5121949;27;20413;-78
2020/12/05 10:06:46;;;;;;;13.80;9.80;;;;;;;;;;5106482;27;20450;-78
2020/12/05 10:09:11;;;;;;;15.23;10.45;;;;;;;;;;5109496;27;20490;-78
2020/12/05 10:11:37;;;;;;;15.65;10.88;;;;;;;;;;5112897;28;20416;-78
2020/12/05 10:14:04;;;;;;;15.88;10.60;;;;;;;;;;5112703;28;20445;-79
2020/12/05 10:16:30;;;;;;;15.48;10.63;;;;;;;;;;5088223;28;20498;-79
2020/12/05 10:18:56;;;;;;;13.95;9.63;;;;;;;;;;5094375;28;20813;-78
2020/12/05 10:21:22;;;;;;;13.32;9.32;;;;;;;;;;5114850;27;20401;-78
2020/12/05 10:23:48;;;;;;;12.13;9.45;;;;;;;;;;5117333;27;20398;-77
2020/12/05 10:26:14;;;;;;;14.48;9.70;;;;;;;;;;5109719;27;20898;-78
2020/12/05 10:28:40;;;;;;;12.45;8.88;;;;;;;;;;5125583;27;21215;-77
2020/12/05 10:31:06;;;;;;;13.75;9.35;;;;;;;;;;5130624;27;20389;-77
2020/12/05 10:33:32;;;;;;;12.23;8.70;;;;;;;;;;5120943;27;20387;-77
2020/12/05 10:35:58;;;;;;;11.98;8.20;;;;;;;;;;5098798;27;20379;-78
2020/12/05 10:38:24;;;;;;;11.27;8.15;;;;;;;;;;5087967;28;20441;-78
2020/12/05 10:40:50;;;;;;;11.95;8.27;;;;;;;;;;5102614;27;20795;-78
2020/12/05 10:43:16;;;;;;;12.85;8.50;;;;;;;;;;5124055;27;20394;-78
2020/12/05 10:45:42;;;;;;;13.97;8.83;;;;;;;;;;5117250;27;20438;-79
2020/12/05 10:48:08;;;;;;;13.13;8.40;;;;;;;;;;5112321;27;20378;-78
2020/12/05 10:50:34;;;;;;;9.80;7.70;;;;;;;;;;5116325;27;20409;-78
2020/12/05 10:53:00;;;;;;;12.27;8.32;;;;;;;;;;5120194;27;20394;-79
2020/12/05 10:55:27;;;;;;;11.57;8.65;;;;;;;;;;5096000;28;20401;-78
2020/12/05 10:57:53;;;;;;;15.70;8.52;;;;;;;;;;5121594;27;20824;-78
2020/12/05 11:00:19;;;;;;;16.10;8.18;;;;;;;;;;5120360;27;20412;-77
2020/12/05 11:02:46;;;;;;;11.05;7.80;;;;;;;;;;5123714;27;20402;-78
2020/12/05 11:05:12;;;;;;;12.40;7.65;;;;;;;;;;5109666;27;20394;-78
2020/12/05 11:07:38;;;;;;;11.38;8.35;;;;;;;;;;5106553;28;20877;-77
2020/12/05 11:10:05;;;;;;;12.00;7.68;;;;;;;;;;5105968;28;20378;-77
2020/12/05 11:12:32;;;;;;;11.15;7.63;;;;;;;;;;5093160;28;20390;-77
2020/12/05 11:14:58;;;;;;;13.50;7.35;;;;;;;;;;5095460;28;20483;-77
2020/12/05 11:17:24;;;;;;;11.23;7.70;;;;;;;;;;5093026;27;20840;-78
2020/12/05 11:19:50;;;;;;;9.57;7.18;;;;;;;;;;5103164;28;20386;-78
2020/12/05 11:22:16;;;;;;;12.33;7.93;;;;;;;;;;5125607;28;20426;-78
2020/12/05 11:24:41;;;;;;;10.00;7.13;;;;;;;;;;5126726;28;20403;-77
2020/12/05 11:27:07;;;;;;;10.27;6.80;;;;;;;;;;5117433;28;20455;-76
2020/12/05 11:29:33;;;;;;;10.13;6.60;;;;;;;;;;5109030;28;20425;-78
2020/12/05 11:31:59;;;;;;;9.20;6.18;;;;;;;;;;5121027;28;20816;-80
2020/12/05 11:34:25;;;;;;;9.18;6.30;;;;;;;;;;5123870;28;20584;-80
2020/12/05 11:36:51;;;;;;;11.18;5.97;;;;;;;;;;5102815;28;20421;-80
2020/12/05 11:39:17;;;;;;;9.57;5.72;;;;;;;;;;5106540;28;20420;-79
2020/12/05 11:41:43;;;;;;;8.73;5.87;;;;;;;;;;5104671;28;20434;-79
2020/12/05 11:44:09;;;;;;;9.38;6.15;;;;;;;;;;5106904;27;20501;-80
2020/12/05 11:46:35;;;;;;;10.50;6.68;;;;;;;;;;5103966;27;20382;-80
2020/12/05 11:49:01;;;;;;;9.40;6.00;;;;;;;;;;5108220;27;20990;-80
2020/12/05 11:51:28;;;;;;;11.57;6.57;;;;;;;;;;5110188;27;20379;-80
2020/12/05 11:53:57;;;;;;;9.55;6.55;;;;;;;;;;5108254;27;20935;-81
2020/12/05 11:56:23;;;;;;;10.95;6.53;;;;;;;;;;5118816;27;20386;-81
2020/12/05 11:58:49;;;;;;;9.73;6.55;;;;;;;;;;5109422;27;20390;-81
2020/12/05 12:01:15;;;;;;;9.70;6.43;;;;;;;;;;5131612;27;20404;-80
2020/12/05 12:03:42;;;;;;;9.90;6.35;;;;;;;;;;5104064;27;20397;-82
2020/12/05 12:06:19;;;;;;;10.75;6.60;;;;;;;;;;5127469;27;20461;-82
2020/12/05 12:08:45;;;;;;;10.20;6.57;;;;;;;;;;5129320;27;20378;-81
2020/12/05 12:11:19;;;;;;;9.85;6.72;;;;;;;;;;5123741;27;20386;-80
2020/12/05 12:13:45;;;;;;;9.85;6.68;;;;;;;;;;5109685;27;20415;-82
2020/12/05 12:16:15;;;;;;;11.45;7.45;;;;;;;;;;5082522;28;20393;-82
2020/12/05 12:18:41;;;;;;;10.07;7.25;;;;;;;;;;5096708;28;20731;-81
2020/12/05 12:21:07;;;;;;;11.20;7.70;;;;;;;;;;5113544;27;20384;-81
2020/12/05 12:23:33;;;;;;;12.00;7.70;;;;;;;;;;5103430;28;20384;-80
2020/12/05 12:25:59;;;;;;;12.77;7.60;;;;;;;;;;5095904;28;20397;-82
2020/12/05 12:28:25;;;;;;;10.57;6.93;;;;;;;;;;5083114;28;20368;-81
2020/12/05 12:30:51;;;;;;;10.80;6.93;;;;;;;;;;5114997;28;20378;-81
2020/12/05 12:33:18;;;;;;;9.52;6.57;;;;;;;;;;5120773;27;20411;-82
2020/12/05 12:35:44;;;;;;;9.63;6.83;;;;;;;;;;5096743;28;20377;-81
2020/12/05 12:38:10;;;;;;;11.32;6.93;;;;;;;;;;5105777;27;20437;-81
2020/12/05 12:40:36;;;;;;;11.40;7.05;;;;;;;;;;5121502;27;20441;-81
2020/12/05 12:43:02;;;;;;;13.00;7.25;;;;;;;;;;5115857;27;20388;-81
2020/12/05 12:45:30;;;;;;;11.10;7.00;;;;;;;;;;5107145;28;20408;-80
2020/12/05 12:50:31;;;;;;;14.95;9.55;;;;;;;;;;5093102;28;20420;-81
2020/12/05 12:52:57;;;;;;;10.38;7.30;;;;;;;;;;5082922;28;20404;-80
2020/12/05 12:55:23;;;;;;;17.73;10.90;;;;;;;;;;5114232;28;20379;-82
2020/12/05 12:57:50;;;;;;;11.68;7.85;;;;;;;;;;5115050;27;20395;-83
2020/12/05 13:00:16;;;;;;;13.63;9.88;;;;;;;;;;5115902;27;20376;-82
2020/12/05 13:02:42;;;;;;;18.73;13.50;;;;;;;;;;5090906;28;20390;-82
2020/12/05 13:05:08;;;;;;;18.13;12.30;;;;;;;;;;5080751;28;20905;-82
2020/12/05 13:07:34;;;;;;;14.27;7.63;;;;;;;;;;5094379;27;20960;-81
2020/12/05 13:10:01;;;;;;;12.07;7.50;;;;;;;;;;5107065;28;20384;-81
2020/12/05 13:12:27;;;;;;;12.40;7.03;;;;;;;;;;5094816;28;20388;-83
2020/12/05 13:14:53;;;;;;;12.02;5.60;;;;;;;;;;5088849;28;20390;-80
2020/12/05 13:17:18;;;;;;;8.47;5.30;;;;;;;;;;5093391;27;20475;-81
2020/12/05 13:19:44;;;;;;;9.00;5.35;;;;;;;;;;5083904;27;20390;-81
2020/12/05 13:22:10;;;;;;;10.05;5.57;;;;;;;;;;5106525;27;20394;-81
2020/12/05 13:24:37;;;;;;;8.70;5.72;;;;;;;;;;5100096;28;20428;-81
2020/12/05 13:27:03;;;;;;;13.02;6.40;;;;;;;;;;5109515;27;20395;-80
2020/12/05 13:29:29;;;;;;;9.23;5.82;;;;;;;;;;5079674;28;20374;-80
2020/12/05 13:31:55;;;;;;;9.10;5.55;;;;;;;;;;5092208;28;20887;-79
2020/12/05 13:34:21;;;;;;;10.07;6.03;;;;;;;;;;5106324;28;20400;-80
2020/12/05 13:36:46;;;;;;;10.57;5.93;;;;;;;;;;5079118;28;20392;-79
2020/12/05 13:39:12;;;;;;;10.98;6.50;;;;;;;;;;5102972;28;20423;-79
2020/12/05 13:41:39;;;;;;;9.73;6.20;;;;;;;;;;5091514;28;20474;-81
2020/12/05 13:44:05;;;;;;;10.70;6.18;;;;;;;;;;5082691;28;20824;-82
2020/12/05 13:46:31;;;;;;;9.95;6.07;;;;;;;;;;5076203;28;20386;-81
2020/12/05 13:48:58;;;;;;;8.95;5.93;;;;;;;;;;5087393;28;20397;-80
2020/12/05 13:51:33;;;;;;;9.70;5.63;;;;;;;;;;5073191;28;20382;-81
2020/12/05 13:53:59;;;;;;;10.10;5.65;;;;;;;;;;5079720;28;20385;-80
2020/12/05 13:56:28;;;;;;;10.10;5.70;;;;;;;;;;5114422;27;20735;-80
2020/12/05 13:58:54;;;;;;;9.50;5.05;;;;;;;;;;5075902;28;20401;-80
2020/12/05 14:01:20;;;;;;;9.63;5.38;;;;;;;;;;5088162;28;21011;-81
2020/12/05 14:03:46;;;;;;;7.40;4.90;;;;;;;;;;5105699;28;20748;-79
2020/12/05 14:06:12;;;;;;;9.82;5.30;;;;;;;;;;5074826;28;20392;-81
2020/12/05 14:08:38;;;;;;;7.65;5.38;;;;;;;;;;5111218;27;20473;-80
2020/12/05 14:11:05;;;;;;;11.20;6.20;;;;;;;;;;5096922;28;20477;-80
2020/12/05 14:13:32;;;;;;;12.90;6.22;;;;;;;;;;5084265;28;20400;-80
2020/12/05 14:15:58;;;;;;;12.15;6.43;;;;;;;;;;5096735;27;20412;-81
2020/12/05 14:18:24;;;;;;;10.00;6.15;;;;;;;;;;5097452;27;20403;-80
2020/12/05 14:20:50;;;;;;;10.07;6.33;;;;;;;;;;5116476;27;20533;-82
2020/12/05 14:23:16;;;;;;;10.70;6.70;;;;;;;;;;5112281;28;20396;-81
2020/12/05 14:25:42;;;;;;;9.10;5.72;;;;;;;;;;5091629;27;20395;-80
2020/12/05 14:28:08;;;;;;;13.77;6.13;;;;;;;;;;5095725;28;20374;-80
2020/12/05 14:30:34;;;;;;;10.30;6.88;;;;;;;;;;5079763;28;20386;-80
2020/12/05 14:33:00;;;;;;;9.65;6.93;;;;;;;;;;5092090;28;20393;-81
2020/12/05 14:35:26;;;;;;;11.20;6.63;;;;;;;;;;5099243;28;20388;-82
2020/12/05 14:37:52;;;;;;;11.43;6.83;;;;;;;;;;5097682;27;20474;-80
2020/12/05 14:40:18;;;;;;;10.68;7.18;;;;;;;;;;5097382;28;20375;-80